createdAt,value
2023-03-27T00:01:28.150Z,11.52
2023-03-27T00:03:55.915Z,16.58
2023-03-27T00:06:25.136Z,16.15
2023-03-27T00:08:53.683Z,13.07
2023-03-27T00:11:22.292Z,11.75
2023-03-27T00:13:54.745Z,12.95
2023-03-27T00:16:26.520Z,13.50
2023-03-27T00:18:56.057Z,11.82
2023-03-27T00:21:24.188Z,13.13
2023-03-27T00:23:52.347Z,16.52
2023-03-27T00:26:22.060Z,10.95
2023-03-27T00:28:50.652Z,20.73
2023-03-27T00:31:18.610Z,10.95
2023-03-27T00:33:46.119Z,8.07
2023-03-27T00:36:15.207Z,14.23
2023-03-27T00:38:43.775Z,10.77
2023-03-27T00:41:12.656Z,14.30
2023-03-27T00:43:43.713Z,11.68
2023-03-27T00:46:44.742Z,18.30
2023-03-27T00:49:16.440Z,18.00
2023-03-27T00:51:47.694Z,11.18
2023-03-27T00:54:26.435Z,14.73
2023-03-27T00:57:01.858Z,10.73
2023-03-27T00:59:34.761Z,12.60
2023-03-27T01:02:06.584Z,13.13
2023-03-27T01:07:07.429Z,13.43
2023-03-27T01:09:35.293Z,14.63
2023-03-27T01:12:18.371Z,9.13
2023-03-27T01:15:30.111Z,13.45
2023-03-27T01:18:38.243Z,14.70
2023-03-27T01:21:53.716Z,12.50
2023-03-27T01:24:56.526Z,11.00
2023-03-27T01:28:03.002Z,14.20
2023-03-27T01:30:50.279Z,13.38
2023-03-27T01:33:34.224Z,14.02
2023-03-27T01:36:36.581Z,10.48
2023-03-27T01:39:26.010Z,12.85
2023-03-27T01:41:59.499Z,9.93
2023-03-27T01:45:00.016Z,11.00
2023-03-27T01:48:18.096Z,14.60
2023-03-27T01:50:49.842Z,14.48
2023-03-27T01:56:08.088Z,12.50
2023-03-27T01:58:46.979Z,17.40
2023-03-27T02:01:22.278Z,13.63
2023-03-27T02:04:00.181Z,12.80
2023-03-27T02:06:47.072Z,16.23
2023-03-27T02:09:29.822Z,13.88
2023-03-27T02:12:11.914Z,11.82
2023-03-27T02:14:48.306Z,11.65
2023-03-27T02:17:20.512Z,17.27
2023-03-27T02:20:16.163Z,11.40
2023-03-27T02:22:48.821Z,12.68
2023-03-27T02:25:39.759Z,16.27
2023-03-27T02:28:20.835Z,13.60
2023-03-27T02:31:33.020Z,11.03
2023-03-27T02:34:33.707Z,12.27
2023-03-27T02:37:39.618Z,9.27
2023-03-27T02:40:40.032Z,10.65
2023-03-27T02:43:30.667Z,10.63
2023-03-27T02:46:29.021Z,6.35
2023-03-27T02:49:03.014Z,7.53
2023-03-27T02:51:42.696Z,10.00
2023-03-27T02:54:19.501Z,13.13
2023-03-27T02:56:55.064Z,8.20
2023-03-27T02:59:45.700Z,7.83
2023-03-27T03:02:23.025Z,5.95
2023-03-27T03:05:08.783Z,8.75
2023-03-27T03:07:40.246Z,7.18
2023-03-27T03:10:11.643Z,6.82
2023-03-27T03:12:39.726Z,8.77
2023-03-27T03:15:08.292Z,6.22
2023-03-27T03:17:37.310Z,7.93
2023-03-27T03:20:07.149Z,7.10
2023-03-27T03:22:34.721Z,7.75
2023-03-27T03:25:02.575Z,7.00
2023-03-27T03:27:31.289Z,8.88
2023-03-27T03:30:18.448Z,7.90
2023-03-27T03:33:00.331Z,8.95
2023-03-27T03:35:28.263Z,7.05
2023-03-27T03:37:59.328Z,6.72
2023-03-27T03:40:27.930Z,6.18
2023-03-27T03:42:58.697Z,8.07
2023-03-27T03:45:29.277Z,10.33
2023-03-27T03:47:57.167Z,7.47
2023-03-27T03:50:25.338Z,5.22
2023-03-27T03:52:52.910Z,7.15
2023-03-27T03:55:20.546Z,6.00
2023-03-27T03:57:48.481Z,7.05
2023-03-27T04:00:25.672Z,8.70
2023-03-27T04:02:57.119Z,8.93
2023-03-27T04:05:26.082Z,9.15
2023-03-27T04:07:59.336Z,5.75
2023-03-27T04:10:53.253Z,6.88
2023-03-27T04:13:41.225Z,10.15
2023-03-27T04:16:21.233Z,7.75
2023-03-27T04:18:54.592Z,9.63
2023-03-27T04:21:26.730Z,9.23
2023-03-27T04:24:02.199Z,6.53
2023-03-27T04:26:43.393Z,8.55
2023-03-27T04:29:31.825Z,13.98
2023-03-27T04:31:59.860Z,8.52
2023-03-27T04:34:42.539Z,11.15
2023-03-27T04:37:25.872Z,12.60
2023-03-27T04:40:13.475Z,9.10
2023-03-27T04:42:43.949Z,12.05
2023-03-27T04:45:15.287Z,6.28
2023-03-27T04:47:48.973Z,10.48
2023-03-27T04:50:17.749Z,10.13
2023-03-27T04:52:49.712Z,10.50
2023-03-27T04:55:19.669Z,9.65
2023-03-27T05:00:19.464Z,8.88
2023-03-27T05:02:48.589Z,14.27
2023-03-27T05:05:22.997Z,10.05
2023-03-27T05:07:52.285Z,14.63
2023-03-27T05:10:23.657Z,8.00
2023-03-27T05:12:54.441Z,8.93
2023-03-27T05:17:54.533Z,9.55
2023-03-27T05:20:26.168Z,8.15
2023-03-27T05:22:56.348Z,10.70
2023-03-27T05:25:30.973Z,11.50
2023-03-27T05:28:01.321Z,11.05
2023-03-27T05:30:32.145Z,9.75
2023-03-27T05:33:26.000Z,12.15
2023-03-27T05:35:57.524Z,14.25
2023-03-27T05:38:26.590Z,13.18
2023-03-27T05:41:12.944Z,9.80
2023-03-27T05:43:59.962Z,10.93
2023-03-27T05:46:33.470Z,11.32
2023-03-27T05:49:07.941Z,13.90
2023-03-27T05:51:36.068Z,10.60
2023-03-27T05:54:06.773Z,10.90
2023-03-27T05:56:45.254Z,11.43
2023-03-27T05:59:13.055Z,16.30
2023-03-27T06:01:41.406Z,11.80
2023-03-27T06:04:09.541Z,10.85
2023-03-27T06:06:52.479Z,14.95
2023-03-27T06:09:21.650Z,10.50
2023-03-27T06:12:11.300Z,11.45
2023-03-27T06:14:40.023Z,14.77
2023-03-27T06:17:30.385Z,17.23
2023-03-27T06:20:10.962Z,12.27
2023-03-27T06:22:46.016Z,14.13
2023-03-27T06:25:16.102Z,10.07
2023-03-27T06:27:46.347Z,9.05
2023-03-27T06:30:18.086Z,8.48
2023-03-27T06:33:00.792Z,12.48
2023-03-27T06:35:32.519Z,11.38
2023-03-27T06:38:13.022Z,12.20
2023-03-27T06:40:41.033Z,10.63
2023-03-27T06:43:11.119Z,12.50
2023-03-27T06:45:50.915Z,10.57
2023-03-27T06:48:27.484Z,12.05
2023-03-27T06:50:58.046Z,12.98
2023-03-27T06:53:28.349Z,10.45
2023-03-27T06:55:58.129Z,12.90
2023-03-27T06:58:27.724Z,9.00
2023-03-27T07:00:56.138Z,12.75
2023-03-27T07:03:25.887Z,10.65
2023-03-27T07:06:01.099Z,9.07
2023-03-27T07:08:34.788Z,9.88
2023-03-27T07:13:35.893Z,13.15
2023-03-27T07:16:07.710Z,8.70
2023-03-27T07:18:36.190Z,12.23
2023-03-27T07:21:04.549Z,8.38
2023-03-27T07:23:32.238Z,10.13
2023-03-27T07:26:05.893Z,9.55
2023-03-27T07:28:51.941Z,8.02
2023-03-27T07:31:35.115Z,10.30
2023-03-27T07:34:09.942Z,13.02
2023-03-27T07:36:57.469Z,9.95
2023-03-27T07:39:25.829Z,8.52
2023-03-27T07:41:53.523Z,9.60
2023-03-27T07:44:29.890Z,8.38
2023-03-27T07:47:07.537Z,7.40
2023-03-27T07:49:39.026Z,8.68
2023-03-27T07:52:11.705Z,7.80
2023-03-27T07:54:59.515Z,7.07
2023-03-27T07:57:58.076Z,11.13
2023-03-27T08:00:27.857Z,11.13
2023-03-27T08:03:11.735Z,6.65
2023-03-27T08:05:44.443Z,10.00
2023-03-27T08:08:14.889Z,9.67
2023-03-27T08:10:51.689Z,10.13
2023-03-27T08:13:19.487Z,10.15
2023-03-27T08:15:47.432Z,8.68
2023-03-27T08:18:26.353Z,10.98
2023-03-27T08:20:58.446Z,9.20
2023-03-27T08:23:27.757Z,6.80
2023-03-27T08:26:26.612Z,9.88
2023-03-27T08:28:59.702Z,9.23
2023-03-27T08:31:31.283Z,10.30
2023-03-27T08:34:02.115Z,7.45
2023-03-27T08:36:39.732Z,6.65
2023-03-27T08:39:08.268Z,7.38
2023-03-27T08:41:56.136Z,10.15
2023-03-27T08:44:32.918Z,7.75
2023-03-27T08:47:16.847Z,6.88
2023-03-27T08:49:58.785Z,9.27
2023-03-27T08:52:33.274Z,7.57
2023-03-27T08:55:37.402Z,5.03
2023-03-27T08:58:21.594Z,7.27
2023-03-27T09:01:14.092Z,7.60
2023-03-27T09:04:05.071Z,8.15
2023-03-27T09:07:03.851Z,6.45
2023-03-27T09:10:17.522Z,6.05
2023-03-27T09:13:22.645Z,8.65
2023-03-27T09:16:03.362Z,6.88
2023-03-27T09:18:49.266Z,5.00
2023-03-27T09:21:38.361Z,9.35
2023-03-27T09:24:27.161Z,5.97
2023-03-27T09:27:21.956Z,7.40
2023-03-27T09:30:18.567Z,6.32
2023-03-27T09:33:01.874Z,3.38
2023-03-27T09:35:29.965Z,6.63
2023-03-27T09:38:07.231Z,5.20
2023-03-27T09:40:48.437Z,5.40
2023-03-27T09:43:26.327Z,7.90
2023-03-27T09:48:55.651Z,7.60
2023-03-27T09:51:52.337Z,7.97
2023-03-27T09:54:55.961Z,6.82
2023-03-27T09:57:34.030Z,8.82
2023-03-27T10:00:27.679Z,6.07
2023-03-27T10:03:06.034Z,7.47
2023-03-27T10:05:36.908Z,5.95
2023-03-27T10:08:27.280Z,7.78
2023-03-27T10:11:33.712Z,5.32
2023-03-27T10:14:18.459Z,11.65
2023-03-27T10:16:50.002Z,9.65
2023-03-27T10:22:34.059Z,6.40
2023-03-27T10:25:10.536Z,6.03
2023-03-27T10:27:54.018Z,4.68
2023-03-27T10:30:37.958Z,5.53
2023-03-27T10:33:39.748Z,7.47
2023-03-27T10:36:37.801Z,6.75
2023-03-27T10:39:14.682Z,8.18
2023-03-27T10:41:56.754Z,5.30
2023-03-27T10:44:28.451Z,5.47
2023-03-27T10:46:58.724Z,2.80
2023-03-27T10:49:44.844Z,4.60
2023-03-27T10:52:33.876Z,6.40
2023-03-27T10:56:11.866Z,3.92
2023-03-27T10:58:47.993Z,3.10
2023-03-27T11:01:34.633Z,5.75
2023-03-27T11:04:24.750Z,4.22
2023-03-27T11:07:06.342Z,3.70
2023-03-27T11:09:45.210Z,4.28
2023-03-27T11:12:17.010Z,5.53
2023-03-27T11:15:22.543Z,3.80
2023-03-27T11:18:03.120Z,4.13
2023-03-27T11:20:59.499Z,4.35
2023-03-27T11:23:56.466Z,5.63
2023-03-27T11:26:54.002Z,3.90
2023-03-27T11:29:39.627Z,3.53
2023-03-27T11:32:33.624Z,3.35
2023-03-27T11:35:17.662Z,4.13
2023-03-27T11:37:57.118Z,4.32
2023-03-27T11:40:42.825Z,4.05
2023-03-27T11:43:14.420Z,4.40
2023-03-27T11:46:02.726Z,8.05
2023-03-27T11:49:05.473Z,5.78
2023-03-27T11:51:49.825Z,8.45
2023-03-27T11:54:44.883Z,5.75
2023-03-27T11:57:25.839Z,6.45
2023-03-27T12:00:26.605Z,4.95
2023-03-27T12:03:19.434Z,5.97
2023-03-27T12:06:14.207Z,6.53
2023-03-27T12:09:08.102Z,8.55
2023-03-27T12:12:26.691Z,4.68
2023-03-27T12:15:29.919Z,5.78
2023-03-27T12:18:23.997Z,5.03
2023-03-27T12:21:29.657Z,4.72
2023-03-27T12:24:46.847Z,5.85
2023-03-27T12:28:23.134Z,3.97
2023-03-27T12:31:53.709Z,4.80
2023-03-27T12:34:54.478Z,4.10
2023-03-27T12:37:31.350Z,5.60
2023-03-27T12:40:02.347Z,6.65
2023-03-27T12:42:54.336Z,5.65
2023-03-27T12:45:28.935Z,6.97
2023-03-27T12:48:19.730Z,6.90
2023-03-27T12:50:51.825Z,7.53
2023-03-27T12:53:40.032Z,5.43
2023-03-27T12:56:13.351Z,9.15
2023-03-27T12:58:41.488Z,8.15
2023-03-27T13:04:57.026Z,7.35
2023-03-27T13:07:29.981Z,8.60
2023-03-27T13:10:41.008Z,6.85
2023-03-27T13:13:35.749Z,10.18
2023-03-27T13:16:23.403Z,7.25
2023-03-27T13:19:17.056Z,7.07
2023-03-27T13:22:27.984Z,6.13
2023-03-27T13:25:31.656Z,8.67
2023-03-27T13:28:11.521Z,6.18
2023-03-27T13:31:00.055Z,6.20
2023-03-27T13:34:27.836Z,9.35
2023-03-27T13:37:11.385Z,6.20
2023-03-27T13:40:02.257Z,7.50
2023-03-27T13:42:43.302Z,7.30
2023-03-27T13:45:40.416Z,9.20
2023-03-27T13:49:07.120Z,9.57
2023-03-27T13:52:34.221Z,8.45
2023-03-27T13:55:23.668Z,6.25
2023-03-27T13:59:01.051Z,7.68
2023-03-27T14:02:22.579Z,10.43
2023-03-27T14:05:21.878Z,7.82
2023-03-27T14:08:38.182Z,9.75
2023-03-27T14:12:01.212Z,8.40
2023-03-27T14:15:21.464Z,8.50
2023-03-27T14:18:25.899Z,10.18
2023-03-27T14:21:02.165Z,7.22
2023-03-27T14:23:56.191Z,8.63
2023-03-27T14:26:47.613Z,6.00
2023-03-27T14:29:25.153Z,4.40
2023-03-27T14:31:52.989Z,6.63
2023-03-27T14:34:54.518Z,6.65
2023-03-27T14:37:45.161Z,5.88
2023-03-27T14:40:37.232Z,4.72
2023-03-27T14:43:12.219Z,6.20
2023-03-27T14:45:41.527Z,8.98
2023-03-27T14:48:33.752Z,8.27
2023-03-27T14:51:09.466Z,4.88
2023-03-27T14:53:45.217Z,7.05
2023-03-27T14:56:37.101Z,4.47
2023-03-27T14:59:20.636Z,3.80
2023-03-27T15:01:56.500Z,8.52
2023-03-27T15:04:27.273Z,5.28
2023-03-27T15:07:21.022Z,5.35
2023-03-27T15:10:31.863Z,6.30
2023-03-27T15:12:59.449Z,7.13
2023-03-27T15:15:39.073Z,4.30
2023-03-27T15:18:28.295Z,4.93
2023-03-27T15:21:01.770Z,6.20
2023-03-27T15:24:00.967Z,5.32
2023-03-27T15:26:35.012Z,8.48
2023-03-27T15:29:23.826Z,7.28
2023-03-27T15:31:53.132Z,8.95
2023-03-27T15:34:35.080Z,7.18
2023-03-27T15:37:11.738Z,3.22
2023-03-27T15:40:13.471Z,5.65
2023-03-27T15:42:50.410Z,4.05
2023-03-27T15:45:34.515Z,4.70
2023-03-27T15:48:06.705Z,5.97
2023-03-27T15:50:34.608Z,4.55
2023-03-27T15:53:02.462Z,4.78
2023-03-27T15:55:40.148Z,5.70
2023-03-27T15:58:39.705Z,5.20
2023-03-27T16:01:18.467Z,5.97
2023-03-27T16:03:48.469Z,4.00
2023-03-27T16:09:05.313Z,7.72
2023-03-27T16:11:45.884Z,6.13
2023-03-27T16:14:34.852Z,7.60
2023-03-27T16:17:12.162Z,11.38
2023-03-27T16:19:54.297Z,9.82
2023-03-27T16:22:32.743Z,8.27
2023-03-27T16:25:05.731Z,8.48
2023-03-27T16:27:38.003Z,6.22
2023-03-27T16:30:09.312Z,7.85
2023-03-27T16:32:37.004Z,9.80
2023-03-27T16:35:05.015Z,7.15
2023-03-27T16:37:32.480Z,8.65
2023-03-27T16:40:00.004Z,7.63
2023-03-27T16:42:27.506Z,10.15
2023-03-27T16:44:55.308Z,9.35
2023-03-27T16:47:25.739Z,8.82
2023-03-27T16:50:10.432Z,6.30
2023-03-27T16:52:38.781Z,5.07
2023-03-27T16:55:07.816Z,8.82
2023-03-27T16:57:36.511Z,6.07
2023-03-27T17:00:06.427Z,7.40
2023-03-27T17:02:35.159Z,7.35
2023-03-27T17:05:05.716Z,8.65
2023-03-27T17:07:33.682Z,7.40
2023-03-27T17:10:01.370Z,6.00
2023-03-27T17:12:29.991Z,6.43
2023-03-27T17:14:57.524Z,8.20
2023-03-27T17:17:27.394Z,6.97
2023-03-27T17:19:55.036Z,9.98
2023-03-27T17:22:22.701Z,8.20
2023-03-27T17:24:56.886Z,8.77
2023-03-27T17:27:26.621Z,8.48
2023-03-27T17:29:58.262Z,9.10
2023-03-27T17:32:26.908Z,8.02
2023-03-27T17:34:54.906Z,7.22
2023-03-27T17:37:23.587Z,11.32
2023-03-27T17:39:51.448Z,9.60
2023-03-27T17:42:18.970Z,8.43
2023-03-27T17:44:46.648Z,8.50
2023-03-27T17:47:14.208Z,8.88
2023-03-27T17:49:43.274Z,11.18
2023-03-27T17:52:12.460Z,9.40
2023-03-27T17:54:40.526Z,6.18
2023-03-27T17:57:08.091Z,7.45
2023-03-27T17:59:36.730Z,10.07
2023-03-27T18:02:04.768Z,8.90
2023-03-27T18:04:37.616Z,12.70
2023-03-27T18:07:05.231Z,9.75
2023-03-27T18:09:34.644Z,13.75
2023-03-27T18:12:02.162Z,8.00
2023-03-27T18:14:29.667Z,10.38
2023-03-27T18:16:57.182Z,8.70
2023-03-27T18:19:25.417Z,8.98
2023-03-27T18:21:53.062Z,11.80
2023-03-27T18:24:20.634Z,8.75
2023-03-27T18:26:48.253Z,10.63
2023-03-27T18:29:15.885Z,8.90
2023-03-27T18:31:43.484Z,16.08
2023-03-27T18:34:11.311Z,11.40
2023-03-27T18:36:38.858Z,10.90
2023-03-27T18:39:06.743Z,11.38
2023-03-27T18:41:35.707Z,11.73
2023-03-27T18:44:04.012Z,8.30
2023-03-27T18:46:35.880Z,12.00
2023-03-27T18:49:17.482Z,9.77
2023-03-27T18:51:49.516Z,10.50
2023-03-27T18:54:17.376Z,14.57
2023-03-27T18:56:45.233Z,11.15
2023-03-27T18:59:16.840Z,12.82
2023-03-27T19:01:44.409Z,11.57
2023-03-27T19:04:17.116Z,9.68
2023-03-27T19:06:46.433Z,16.73
2023-03-27T19:09:15.630Z,10.77
2023-03-27T19:11:44.133Z,11.20
2023-03-27T19:14:30.695Z,8.45
2023-03-27T19:17:43.749Z,11.27
2023-03-27T19:20:22.816Z,11.73
2023-03-27T19:22:53.832Z,8.82
2023-03-27T19:25:28.608Z,8.88
2023-03-27T19:27:56.288Z,9.85
2023-03-27T19:30:25.335Z,9.25
2023-03-27T19:32:56.207Z,11.55
2023-03-27T19:35:25.370Z,9.30
2023-03-27T19:37:54.299Z,9.30
2023-03-27T19:40:22.686Z,10.13
2023-03-27T19:42:50.620Z,12.32
2023-03-27T19:45:18.343Z,11.25
2023-03-27T19:47:47.769Z,9.05
2023-03-27T19:50:16.054Z,11.27
2023-03-27T19:53:05.401Z,13.32
2023-03-27T19:55:35.456Z,12.45
2023-03-27T19:58:02.931Z,9.05
2023-03-27T20:00:32.120Z,10.70
2023-03-27T20:02:59.785Z,12.50
2023-03-27T20:05:29.731Z,12.20
2023-03-27T20:07:57.291Z,11.05
2023-03-27T20:10:27.051Z,10.70
2023-03-27T20:12:54.593Z,11.55
2023-03-27T20:15:22.658Z,12.38
2023-03-27T20:17:50.307Z,11.20
2023-03-27T20:20:45.599Z,10.32
2023-03-27T20:23:18.213Z,13.43
2023-03-27T20:25:50.024Z,10.70
2023-03-27T20:28:17.614Z,15.13
2023-03-27T20:30:46.146Z,10.65
2023-03-27T20:33:13.739Z,13.57
2023-03-27T20:35:41.798Z,16.60
2023-03-27T20:38:11.279Z,10.07
2023-03-27T20:40:54.411Z,18.05
2023-03-27T20:43:30.989Z,12.55
2023-03-27T20:46:00.111Z,12.60
2023-03-27T20:48:43.862Z,15.48
2023-03-27T20:51:24.385Z,13.02
2023-03-27T20:53:56.238Z,13.97
2023-03-27T20:56:24.659Z,15.63
2023-03-27T20:58:52.432Z,12.23
2023-03-27T21:01:20.503Z,12.77
2023-03-27T21:03:49.985Z,12.27
2023-03-27T21:06:20.873Z,16.45
2023-03-27T21:08:58.320Z,11.53
2023-03-27T21:11:26.271Z,12.55
2023-03-27T21:13:54.076Z,14.27
2023-03-27T21:16:33.262Z,18.70
2023-03-27T21:19:01.578Z,12.40
2023-03-27T21:21:35.480Z,15.30
2023-03-27T21:24:29.464Z,17.85
2023-03-27T21:26:58.488Z,10.70
2023-03-27T21:29:26.372Z,13.55
2023-03-27T21:31:53.877Z,12.98
2023-03-27T21:34:22.336Z,12.05
2023-03-27T21:36:50.031Z,14.73
2023-03-27T21:39:17.690Z,13.07
2023-03-27T21:41:45.390Z,13.15
2023-03-27T21:44:12.995Z,12.57
2023-03-27T21:46:40.617Z,11.88
2023-03-27T21:49:08.095Z,13.20
2023-03-27T21:51:35.947Z,12.27
2023-03-27T21:54:03.636Z,12.55
2023-03-27T21:56:31.232Z,14.90
2023-03-27T21:58:58.746Z,14.00
2023-03-27T22:01:26.582Z,14.70
2023-03-27T22:03:54.128Z,11.80
2023-03-27T22:06:21.898Z,14.52
2023-03-27T22:08:49.462Z,12.43
2023-03-27T22:11:17.164Z,11.20
2023-03-27T22:13:46.567Z,15.05
2023-03-27T22:16:17.345Z,13.63
2023-03-27T22:18:45.417Z,16.65
2023-03-27T22:21:25.756Z,13.07
2023-03-27T22:23:56.741Z,15.63
2023-03-27T22:26:29.934Z,14.35
2023-03-27T22:29:14.855Z,10.55
2023-03-27T22:31:42.851Z,12.13
2023-03-27T22:34:10.650Z,14.05
2023-03-27T22:36:40.791Z,12.27
2023-03-27T22:39:08.288Z,11.45
2023-03-27T22:41:35.811Z,13.45
2023-03-27T22:44:03.379Z,9.88
2023-03-27T22:46:31.123Z,12.82
2023-03-27T22:48:59.102Z,9.82
2023-03-27T22:51:30.904Z,10.95
2023-03-27T22:53:59.027Z,13.43
2023-03-27T22:56:26.899Z,9.95
2023-03-27T22:58:54.432Z,14.80
2023-03-27T23:01:21.968Z,13.07
2023-03-27T23:03:49.562Z,13.57
2023-03-27T23:06:23.206Z,16.50
2023-03-27T23:08:51.813Z,12.88
2023-03-27T23:11:20.560Z,13.13
2023-03-27T23:13:48.501Z,16.20
2023-03-27T23:16:16.306Z,11.30
2023-03-27T23:18:43.828Z,15.63
2023-03-27T23:21:14.016Z,14.95
2023-03-27T23:23:41.508Z,12.73
2023-03-27T23:26:10.023Z,13.38
2023-03-27T23:28:41.135Z,13.93
2023-03-27T23:31:14.551Z,14.40
2023-03-27T23:33:46.448Z,13.25
2023-03-27T23:36:18.619Z,15.02
2023-03-27T23:38:46.647Z,15.23
2023-03-27T23:41:16.066Z,13.65
2023-03-27T23:43:44.555Z,13.40
2023-03-27T23:46:13.302Z,12.02
2023-03-27T23:48:43.684Z,10.20
2023-03-27T23:51:13.993Z,14.10
2023-03-27T23:53:41.994Z,12.18
2023-03-27T23:56:10.397Z,15.70
2023-03-27T23:58:37.989Z,13.45
